sensor_id;sensor_type;location;lat;lon;timestamp;P1;durP1;ratioP1;P2;durP2;ratioP2
46491;SDS011;32206;51.446;6.792;2023-05-10T00:02:07;14.30;;;11.00;;
46491;SDS011;32206;51.446;6.792;2023-05-10T00:04:33;14.35;;;11.02;;
46491;SDS011;32206;51.446;6.792;2023-05-10T00:06:58;13.00;;;10.90;;
46491;SDS011;32206;51.446;6.792;2023-05-10T00:09:24;14.30;;;11.55;;
46491;SDS011;32206;51.446;6.792;2023-05-10T00:11:50;13.55;;;10.70;;
46491;SDS011;32206;51.446;6.792;2023-05-10T00:14:16;11.55;;;10.15;;
46491;SDS011;32206;51.446;6.792;2023-05-10T00:16:41;11.00;;;8.98;;
46491;SDS011;32206;51.446;6.792;2023-05-10T00:19:07;10.70;;;8.45;;
46491;SDS011;32206;51.446;6.792;2023-05-10T00:21:33;9.23;;;6.75;;
46491;SDS011;32206;51.446;6.792;2023-05-10T00:23:58;8.90;;;6.82;;
46491;SDS011;32206;51.446;6.792;2023-05-10T00:26:24;11.05;;;7.30;;
46491;SDS011;32206;51.446;6.792;2023-05-10T00:28:50;8.50;;;6.97;;
46491;SDS011;32206;51.446;6.792;2023-05-10T00:31:16;7.82;;;6.97;;
46491;SDS011;32206;51.446;6.792;2023-05-10T00:33:41;8.75;;;7.05;;
46491;SDS011;32206;51.446;6.792;2023-05-10T00:36:07;11.73;;;8.80;;
46491;SDS011;32206;51.446;6.792;2023-05-10T00:38:33;10.18;;;9.00;;
46491;SDS011;32206;51.446;6.792;2023-05-10T00:40:59;12.02;;;9.63;;
46491;SDS011;32206;51.446;6.792;2023-05-10T00:43:25;13.30;;;10.27;;
46491;SDS011;32206;51.446;6.792;2023-05-10T00:45:51;14.15;;;10.23;;
46491;SDS011;32206;51.446;6.792;2023-05-10T00:55:02;13.65;;;10.68;;
46491;SDS011;32206;51.446;6.792;2023-05-10T00:57:29;14.68;;;10.52;;
46491;SDS011;32206;51.446;6.792;2023-05-10T01:03:17;15.68;;;11.13;;
46491;SDS011;32206;51.446;6.792;2023-05-10T01:05:43;15.95;;;10.60;;
46491;SDS011;32206;51.446;6.792;2023-05-10T01:08:08;12.63;;;10.57;;
46491;SDS011;32206;51.446;6.792;2023-05-10T01:10:34;12.90;;;10.43;;
46491;SDS011;32206;51.446;6.792;2023-05-10T01:13:00;14.90;;;11.35;;
46491;SDS011;32206;51.446;6.792;2023-05-10T01:15:26;16.48;;;11.38;;
46491;SDS011;32206;51.446;6.792;2023-05-10T01:17:52;13.55;;;10.95;;
46491;SDS011;32206;51.446;6.792;2023-05-10T01:20:19;15.38;;;11.23;;
46491;SDS011;32206;51.446;6.792;2023-05-10T01:25:32;15.13;;;10.98;;
46491;SDS011;32206;51.446;6.792;2023-05-10T01:33:35;13.32;;;10.23;;
46491;SDS011;32206;51.446;6.792;2023-05-10T01:38:59;15.35;;;10.93;;
46491;SDS011;32206;51.446;6.792;2023-05-10T01:44:54;14.85;;;10.35;;
46491;SDS011;32206;51.446;6.792;2023-05-10T01:47:44;12.73;;;9.68;;
46491;SDS011;32206;51.446;6.792;2023-05-10T01:50:18;12.70;;;9.85;;
46491;SDS011;32206;51.446;6.792;2023-05-10T01:52:49;15.18;;;10.60;;
46491;SDS011;32206;51.446;6.792;2023-05-10T01:55:20;14.02;;;10.15;;
46491;SDS011;32206;51.446;6.792;2023-05-10T01:57:48;14.57;;;10.27;;
46491;SDS011;32206;51.446;6.792;2023-05-10T02:03:36;14.45;;;10.23;;
46491;SDS011;32206;51.446;6.792;2023-05-10T02:06:03;16.95;;;10.70;;
46491;SDS011;32206;51.446;6.792;2023-05-10T02:08:30;14.35;;;10.75;;
46491;SDS011;32206;51.446;6.792;2023-05-10T02:10:57;15.60;;;10.68;;
46491;SDS011;32206;51.446;6.792;2023-05-10T02:13:24;17.40;;;11.57;;
46491;SDS011;32206;51.446;6.792;2023-05-10T02:15:52;15.45;;;10.65;;
46491;SDS011;32206;51.446;6.792;2023-05-10T02:18:19;13.30;;;10.23;;
46491;SDS011;32206;51.446;6.792;2023-05-10T02:20:46;14.23;;;10.98;;
46491;SDS011;32206;51.446;6.792;2023-05-10T02:23:13;19.38;;;12.40;;
46491;SDS011;32206;51.446;6.792;2023-05-10T02:25:40;16.73;;;12.00;;
46491;SDS011;32206;51.446;6.792;2023-05-10T02:28:08;19.40;;;12.88;;
46491;SDS011;32206;51.446;6.792;2023-05-10T02:30:35;25.92;;;13.80;;
46491;SDS011;32206;51.446;6.792;2023-05-10T02:33:01;20.08;;;13.65;;
46491;SDS011;32206;51.446;6.792;2023-05-10T02:35:30;23.25;;;15.45;;
46491;SDS011;32206;51.446;6.792;2023-05-10T02:37:58;24.67;;;15.77;;
46491;SDS011;32206;51.446;6.792;2023-05-10T02:40:25;23.08;;;14.52;;
46491;SDS011;32206;51.446;6.792;2023-05-10T02:42:52;26.33;;;16.55;;
46491;SDS011;32206;51.446;6.792;2023-05-10T02:45:22;25.98;;;16.95;;
46491;SDS011;32206;51.446;6.792;2023-05-10T02:47:51;21.70;;;15.15;;
46491;SDS011;32206;51.446;6.792;2023-05-10T02:50:17;22.42;;;14.73;;
46491;SDS011;32206;51.446;6.792;2023-05-10T02:52:47;22.63;;;14.00;;
46491;SDS011;32206;51.446;6.792;2023-05-10T02:55:19;23.20;;;14.73;;
46491;SDS011;32206;51.446;6.792;2023-05-10T02:57:54;22.85;;;14.30;;
46491;SDS011;32206;51.446;6.792;2023-05-10T03:00:24;23.73;;;14.60;;
46491;SDS011;32206;51.446;6.792;2023-05-10T03:02:50;23.77;;;14.65;;
46491;SDS011;32206;51.446;6.792;2023-05-10T03:05:16;28.98;;;14.50;;
46491;SDS011;32206;51.446;6.792;2023-05-10T03:07:41;31.80;;;16.38;;
46491;SDS011;32206;51.446;6.792;2023-05-10T03:10:08;22.33;;;14.43;;
46491;SDS011;32206;51.446;6.792;2023-05-10T03:18:06;23.27;;;13.90;;
46491;SDS011;32206;51.446;6.792;2023-05-10T03:20:41;25.88;;;15.23;;
46491;SDS011;32206;51.446;6.792;2023-05-10T03:23:11;30.52;;;16.73;;
46491;SDS011;32206;51.446;6.792;2023-05-10T03:25:43;28.83;;;15.75;;
46491;SDS011;32206;51.446;6.792;2023-05-10T03:28:12;34.17;;;17.65;;
46491;SDS011;32206;51.446;6.792;2023-05-10T03:30:40;31.55;;;17.42;;
46491;SDS011;32206;51.446;6.792;2023-05-10T03:33:06;35.72;;;16.67;;
46491;SDS011;32206;51.446;6.792;2023-05-10T03:35:32;29.60;;;16.27;;
46491;SDS011;32206;51.446;6.792;2023-05-10T03:37:58;30.95;;;16.52;;
46491;SDS011;32206;51.446;6.792;2023-05-10T03:40:24;27.73;;;15.70;;
46491;SDS011;32206;51.446;6.792;2023-05-10T03:42:51;26.67;;;14.68;;
46491;SDS011;32206;51.446;6.792;2023-05-10T03:45:16;34.10;;;15.63;;
46491;SDS011;32206;51.446;6.792;2023-05-10T03:47:42;32.00;;;16.40;;
46491;SDS011;32206;51.446;6.792;2023-05-10T03:50:08;30.38;;;17.05;;
46491;SDS011;32206;51.446;6.792;2023-05-10T03:52:35;33.00;;;16.38;;
46491;SDS011;32206;51.446;6.792;2023-05-10T03:55:00;32.13;;;17.08;;
46491;SDS011;32206;51.446;6.792;2023-05-10T03:57:28;33.47;;;17.02;;
46491;SDS011;32206;51.446;6.792;2023-05-10T03:59:54;44.22;;;23.42;;
46491;SDS011;32206;51.446;6.792;2023-05-10T04:02:19;38.13;;;20.08;;
46491;SDS011;32206;51.446;6.792;2023-05-10T04:04:45;35.65;;;19.05;;
46491;SDS011;32206;51.446;6.792;2023-05-10T04:07:11;29.02;;;17.23;;
46491;SDS011;32206;51.446;6.792;2023-05-10T04:09:36;31.58;;;17.10;;
46491;SDS011;32206;51.446;6.792;2023-05-10T04:12:02;32.28;;;17.35;;
46491;SDS011;32206;51.446;6.792;2023-05-10T04:14:28;29.38;;;17.42;;
46491;SDS011;32206;51.446;6.792;2023-05-10T04:16:56;30.77;;;17.35;;
46491;SDS011;32206;51.446;6.792;2023-05-10T04:19:22;32.13;;;18.00;;
46491;SDS011;32206;51.446;6.792;2023-05-10T04:21:48;36.80;;;18.70;;
46491;SDS011;32206;51.446;6.792;2023-05-10T04:24:13;36.47;;;19.35;;
46491;SDS011;32206;51.446;6.792;2023-05-10T04:26:39;34.33;;;20.48;;
46491;SDS011;32206;51.446;6.792;2023-05-10T04:29:05;36.30;;;20.05;;
46491;SDS011;32206;51.446;6.792;2023-05-10T04:31:31;32.25;;;18.42;;
46491;SDS011;32206;51.446;6.792;2023-05-10T04:33:57;32.03;;;19.45;;
46491;SDS011;32206;51.446;6.792;2023-05-10T04:36:23;33.83;;;18.25;;
46491;SDS011;32206;51.446;6.792;2023-05-10T04:38:48;29.23;;;19.63;;
46491;SDS011;32206;51.446;6.792;2023-05-10T04:41:15;34.17;;;19.80;;
46491;SDS011;32206;51.446;6.792;2023-05-10T04:43:41;37.35;;;21.42;;
46491;SDS011;32206;51.446;6.792;2023-05-10T04:46:06;33.75;;;21.55;;
46491;SDS011;32206;51.446;6.792;2023-05-10T04:48:32;35.80;;;20.70;;
46491;SDS011;32206;51.446;6.792;2023-05-10T04:50:58;32.35;;;21.17;;
46491;SDS011;32206;51.446;6.792;2023-05-10T04:53:24;42.85;;;24.73;;
46491;SDS011;32206;51.446;6.792;2023-05-10T04:55:49;39.95;;;21.70;;
46491;SDS011;32206;51.446;6.792;2023-05-10T04:58:15;39.80;;;21.85;;
46491;SDS011;32206;51.446;6.792;2023-05-10T05:00:41;38.00;;;21.83;;
46491;SDS011;32206;51.446;6.792;2023-05-10T05:03:07;38.40;;;21.20;;
46491;SDS011;32206;51.446;6.792;2023-05-10T05:05:33;38.65;;;21.65;;
46491;SDS011;32206;51.446;6.792;2023-05-10T05:07:58;40.45;;;23.25;;
46491;SDS011;32206;51.446;6.792;2023-05-10T05:10:24;42.42;;;22.48;;
46491;SDS011;32206;51.446;6.792;2023-05-10T05:12:50;39.72;;;24.33;;
46491;SDS011;32206;51.446;6.792;2023-05-10T05:15:15;41.88;;;21.45;;
46491;SDS011;32206;51.446;6.792;2023-05-10T05:17:42;35.08;;;21.05;;
46491;SDS011;32206;51.446;6.792;2023-05-10T05:20:08;41.50;;;22.92;;
46491;SDS011;32206;51.446;6.792;2023-05-10T05:22:38;36.00;;;21.50;;
46491;SDS011;32206;51.446;6.792;2023-05-10T05:25:04;38.10;;;22.42;;
46491;SDS011;32206;51.446;6.792;2023-05-10T05:27:30;39.92;;;22.42;;
46491;SDS011;32206;51.446;6.792;2023-05-10T05:29:56;38.92;;;21.55;;
46491;SDS011;32206;51.446;6.792;2023-05-10T05:32:22;35.17;;;21.08;;
46491;SDS011;32206;51.446;6.792;2023-05-10T05:34:48;35.13;;;21.27;;
46491;SDS011;32206;51.446;6.792;2023-05-10T05:37:34;35.83;;;21.73;;
46491;SDS011;32206;51.446;6.792;2023-05-10T05:40:00;41.75;;;21.88;;
46491;SDS011;32206;51.446;6.792;2023-05-10T05:42:27;37.80;;;22.27;;
46491;SDS011;32206;51.446;6.792;2023-05-10T05:44:52;41.67;;;21.45;;
46491;SDS011;32206;51.446;6.792;2023-05-10T05:47:18;37.78;;;21.90;;
46491;SDS011;32206;51.446;6.792;2023-05-10T06:03:09;52.30;;;26.45;;
46491;SDS011;32206;51.446;6.792;2023-05-10T06:05:35;48.20;;;25.33;;
46491;SDS011;32206;51.446;6.792;2023-05-10T06:08:01;52.78;;;26.55;;
46491;SDS011;32206;51.446;6.792;2023-05-10T06:10:26;49.08;;;24.63;;
46491;SDS011;32206;51.446;6.792;2023-05-10T06:12:52;52.20;;;25.67;;
46491;SDS011;32206;51.446;6.792;2023-05-10T06:22:02;46.03;;;25.92;;
46491;SDS011;32206;51.446;6.792;2023-05-10T06:24:27;47.22;;;25.42;;
46491;SDS011;32206;51.446;6.792;2023-05-10T06:30:15;53.17;;;25.63;;
46491;SDS011;32206;51.446;6.792;2023-05-10T06:32:41;59.35;;;27.33;;
46491;SDS011;32206;51.446;6.792;2023-05-10T06:35:08;57.10;;;26.40;;
46491;SDS011;32206;51.446;6.792;2023-05-10T06:37:34;52.90;;;27.80;;
46491;SDS011;32206;51.446;6.792;2023-05-10T06:40:00;55.25;;;26.95;;
46491;SDS011;32206;51.446;6.792;2023-05-10T06:42:26;56.95;;;29.30;;
46491;SDS011;32206;51.446;6.792;2023-05-10T06:44:52;57.00;;;27.10;;
46491;SDS011;32206;51.446;6.792;2023-05-10T06:47:18;59.45;;;27.15;;
46491;SDS011;32206;51.446;6.792;2023-05-10T06:49:43;60.08;;;27.23;;
46491;SDS011;32206;51.446;6.792;2023-05-10T06:52:09;53.22;;;26.67;;
46491;SDS011;32206;51.446;6.792;2023-05-10T06:54:35;57.72;;;27.70;;
46491;SDS011;32206;51.446;6.792;2023-05-10T06:57:00;55.25;;;27.60;;
46491;SDS011;32206;51.446;6.792;2023-05-10T06:59:28;54.05;;;26.73;;
46491;SDS011;32206;51.446;6.792;2023-05-10T07:01:53;49.97;;;24.60;;
46491;SDS011;32206;51.446;6.792;2023-05-10T07:04:19;50.40;;;25.80;;
46491;SDS011;32206;51.446;6.792;2023-05-10T07:06:45;50.42;;;26.15;;
46491;SDS011;32206;51.446;6.792;2023-05-10T07:09:11;57.78;;;27.85;;
46491;SDS011;32206;51.446;6.792;2023-05-10T07:11:38;54.20;;;27.27;;
46491;SDS011;32206;51.446;6.792;2023-05-10T07:14:04;56.28;;;25.35;;
46491;SDS011;32206;51.446;6.792;2023-05-10T07:16:30;46.60;;;24.92;;
46491;SDS011;32206;51.446;6.792;2023-05-10T07:18:55;58.72;;;27.00;;
46491;SDS011;32206;51.446;6.792;2023-05-10T07:21:21;47.90;;;25.25;;
46491;SDS011;32206;51.446;6.792;2023-05-10T07:27:11;52.88;;;25.38;;
46491;SDS011;32206;51.446;6.792;2023-05-10T07:29:37;47.47;;;23.92;;
46491;SDS011;32206;51.446;6.792;2023-05-10T07:32:03;48.53;;;22.90;;
46491;SDS011;32206;51.446;6.792;2023-05-10T07:34:30;48.33;;;21.38;;
46491;SDS011;32206;51.446;6.792;2023-05-10T07:36:59;45.63;;;21.10;;
46491;SDS011;32206;51.446;6.792;2023-05-10T07:39:26;53.55;;;23.27;;
46491;SDS011;32206;51.446;6.792;2023-05-10T07:41:52;46.05;;;23.27;;
46491;SDS011;32206;51.446;6.792;2023-05-10T07:44:18;50.05;;;23.67;;
46491;SDS011;32206;51.446;6.792;2023-05-10T07:46:45;48.50;;;22.52;;
46491;SDS011;32206;51.446;6.792;2023-05-10T07:49:11;44.50;;;23.83;;
46491;SDS011;32206;51.446;6.792;2023-05-10T07:51:36;41.35;;;21.88;;
46491;SDS011;32206;51.446;6.792;2023-05-10T07:54:02;48.55;;;23.20;;
46491;SDS011;32206;51.446;6.792;2023-05-10T07:56:31;37.33;;;19.75;;
46491;SDS011;32206;51.446;6.792;2023-05-10T07:59:01;33.88;;;19.10;;
46491;SDS011;32206;51.446;6.792;2023-05-10T08:01:41;44.05;;;19.42;;
46491;SDS011;32206;51.446;6.792;2023-05-10T08:04:07;32.97;;;18.77;;
46491;SDS011;32206;51.446;6.792;2023-05-10T08:09:55;35.92;;;18.25;;
46491;SDS011;32206;51.446;6.792;2023-05-10T08:12:21;45.25;;;20.88;;
46491;SDS011;32206;51.446;6.792;2023-05-10T08:14:47;50.28;;;22.58;;
46491;SDS011;32206;51.446;6.792;2023-05-10T08:20:34;42.30;;;21.15;;
46491;SDS011;32206;51.446;6.792;2023-05-10T08:23:00;46.42;;;22.42;;
46491;SDS011;32206;51.446;6.792;2023-05-10T08:25:25;44.00;;;23.20;;
46491;SDS011;32206;51.446;6.792;2023-05-10T08:27:51;38.83;;;21.30;;
46491;SDS011;32206;51.446;6.792;2023-05-10T08:30:17;47.58;;;21.90;;
46491;SDS011;32206;51.446;6.792;2023-05-10T08:32:42;47.47;;;21.98;;
46491;SDS011;32206;51.446;6.792;2023-05-10T08:35:08;41.20;;;21.95;;
46491;SDS011;32206;51.446;6.792;2023-05-10T08:37:33;39.67;;;20.67;;
46491;SDS011;32206;51.446;6.792;2023-05-10T08:39:59;38.03;;;18.30;;
46491;SDS011;32206;51.446;6.792;2023-05-10T08:42:25;33.47;;;18.95;;
46491;SDS011;32206;51.446;6.792;2023-05-10T08:44:55;36.25;;;18.25;;
46491;SDS011;32206;51.446;6.792;2023-05-10T08:47:24;30.48;;;18.10;;
46491;SDS011;32206;51.446;6.792;2023-05-10T08:49:50;34.78;;;18.67;;
46491;SDS011;32206;51.446;6.792;2023-05-10T08:52:17;41.92;;;19.33;;
46491;SDS011;32206;51.446;6.792;2023-05-10T08:54:43;33.17;;;17.45;;
46491;SDS011;32206;51.446;6.792;2023-05-10T08:57:10;37.38;;;18.33;;
46491;SDS011;32206;51.446;6.792;2023-05-10T08:59:36;35.10;;;17.08;;
46491;SDS011;32206;51.446;6.792;2023-05-10T09:02:04;36.70;;;18.48;;
46491;SDS011;32206;51.446;6.792;2023-05-10T09:04:31;30.13;;;17.77;;
46491;SDS011;32206;51.446;6.792;2023-05-10T09:06:57;26.15;;;17.75;;
46491;SDS011;32206;51.446;6.792;2023-05-10T09:09:23;32.60;;;17.40;;
46491;SDS011;32206;51.446;6.792;2023-05-10T09:11:49;33.13;;;17.67;;
46491;SDS011;32206;51.446;6.792;2023-05-10T09:14:15;32.58;;;18.20;;
46491;SDS011;32206;51.446;6.792;2023-05-10T09:16:42;26.70;;;16.33;;
46491;SDS011;32206;51.446;6.792;2023-05-10T09:19:07;28.95;;;15.52;;
46491;SDS011;32206;51.446;6.792;2023-05-10T09:21:34;23.90;;;13.50;;
46491;SDS011;32206;51.446;6.792;2023-05-10T09:24:03;21.63;;;13.10;;
46491;SDS011;32206;51.446;6.792;2023-05-10T09:26:30;22.00;;;12.90;;
46491;SDS011;32206;51.446;6.792;2023-05-10T09:28:57;20.10;;;13.05;;
46491;SDS011;32206;51.446;6.792;2023-05-10T09:31:24;29.70;;;15.23;;
46491;SDS011;32206;51.446;6.792;2023-05-10T09:34:07;21.63;;;14.25;;
46491;SDS011;32206;51.446;6.792;2023-05-10T09:36:33;22.27;;;13.98;;
46491;SDS011;32206;51.446;6.792;2023-05-10T09:38:59;18.65;;;12.88;;
46491;SDS011;32206;51.446;6.792;2023-05-10T09:41:25;19.67;;;12.95;;
46491;SDS011;32206;51.446;6.792;2023-05-10T09:43:55;20.60;;;13.20;;
46491;SDS011;32206;51.446;6.792;2023-05-10T09:46:21;19.80;;;13.55;;
46491;SDS011;32206;51.446;6.792;2023-05-10T09:48:47;21.05;;;13.07;;
46491;SDS011;32206;51.446;6.792;2023-05-10T09:51:23;21.92;;;13.48;;
46491;SDS011;32206;51.446;6.792;2023-05-10T09:54:08;22.85;;;13.80;;
46491;SDS011;32206;51.446;6.792;2023-05-10T10:03:22;22.98;;;14.70;;
46491;SDS011;32206;51.446;6.792;2023-05-10T10:05:49;23.65;;;14.57;;
46491;SDS011;32206;51.446;6.792;2023-05-10T10:08:15;20.63;;;14.38;;
46491;SDS011;32206;51.446;6.792;2023-05-10T10:10:42;19.77;;;12.80;;
46491;SDS011;32206;51.446;6.792;2023-05-10T10:13:11;19.55;;;12.98;;
46491;SDS011;32206;51.446;6.792;2023-05-10T10:21:57;17.48;;;12.10;;
46491;SDS011;32206;51.446;6.792;2023-05-10T10:24:24;21.10;;;14.07;;
46491;SDS011;32206;51.446;6.792;2023-05-10T10:35:33;20.13;;;14.20;;
46491;SDS011;32206;51.446;6.792;2023-05-10T10:38:00;21.23;;;13.82;;
46491;SDS011;32206;51.446;6.792;2023-05-10T10:40:32;19.35;;;12.13;;
46491;SDS011;32206;51.446;6.792;2023-05-10T10:43:21;19.65;;;12.02;;
46491;SDS011;32206;51.446;6.792;2023-05-10T10:48:51;22.20;;;13.38;;
46491;SDS011;32206;51.446;6.792;2023-05-10T10:51:40;20.75;;;13.30;;
46491;SDS011;32206;51.446;6.792;2023-05-10T10:55:07;21.30;;;13.55;;
46491;SDS011;32206;51.446;6.792;2023-05-10T10:57:51;27.63;;;13.68;;
46491;SDS011;32206;51.446;6.792;2023-05-10T11:00:32;23.77;;;13.52;;
46491;SDS011;32206;51.446;6.792;2023-05-10T11:03:04;19.15;;;14.85;;
46491;SDS011;32206;51.446;6.792;2023-05-10T11:05:46;24.92;;;14.75;;
46491;SDS011;32206;51.446;6.792;2023-05-10T11:08:26;23.10;;;15.55;;
46491;SDS011;32206;51.446;6.792;2023-05-10T11:13:43;24.23;;;15.23;;
46491;SDS011;32206;51.446;6.792;2023-05-10T11:19:31;22.08;;;14.05;;
46491;SDS011;32206;51.446;6.792;2023-05-10T11:24:29;19.75;;;14.93;;
46491;SDS011;32206;51.446;6.792;2023-05-10T11:26:55;21.90;;;14.13;;
46491;SDS011;32206;51.446;6.792;2023-05-10T11:29:21;19.27;;;12.27;;
46491;SDS011;32206;51.446;6.792;2023-05-10T11:31:50;13.80;;;11.63;;
46491;SDS011;32206;51.446;6.792;2023-05-10T11:34:26;17.98;;;12.20;;
46491;SDS011;32206;51.446;6.792;2023-05-10T11:36:53;15.38;;;11.25;;
46491;SDS011;32206;51.446;6.792;2023-05-10T11:39:20;15.88;;;10.88;;
46491;SDS011;32206;51.446;6.792;2023-05-10T11:41:49;15.52;;;11.55;;
46491;SDS011;32206;51.446;6.792;2023-05-10T11:44:15;21.13;;;13.07;;
46491;SDS011;32206;51.446;6.792;2023-05-10T11:46:41;15.98;;;10.20;;
46491;SDS011;32206;51.446;6.792;2023-05-10T11:49:06;16.42;;;10.45;;
46491;SDS011;32206;51.446;6.792;2023-05-10T11:51:33;13.57;;;9.40;;
46491;SDS011;32206;51.446;6.792;2023-05-10T11:54:07;12.90;;;8.68;;
46491;SDS011;32206;51.446;6.792;2023-05-10T11:56:34;9.73;;;7.43;;
46491;SDS011;32206;51.446;6.792;2023-05-10T11:59:00;10.10;;;6.93;;
46491;SDS011;32206;51.446;6.792;2023-05-10T12:01:27;11.32;;;7.25;;
46491;SDS011;32206;51.446;6.792;2023-05-10T12:03:54;8.40;;;6.47;;
46491;SDS011;32206;51.446;6.792;2023-05-10T12:06:26;7.07;;;6.25;;
46491;SDS011;32206;51.446;6.792;2023-05-10T12:08:53;9.10;;;6.82;;
46491;SDS011;32206;51.446;6.792;2023-05-10T12:11:19;10.30;;;6.10;;
46491;SDS011;32206;51.446;6.792;2023-05-10T12:13:46;11.38;;;6.60;;
46491;SDS011;32206;51.446;6.792;2023-05-10T12:19:38;7.05;;;5.32;;
46491;SDS011;32206;51.446;6.792;2023-05-10T12:22:04;7.40;;;6.53;;
46491;SDS011;32206;51.446;6.792;2023-05-10T12:24:33;6.72;;;6.03;;
46491;SDS011;32206;51.446;6.792;2023-05-10T12:26:59;5.75;;;5.25;;
46491;SDS011;32206;51.446;6.792;2023-05-10T12:29:29;5.53;;;4.88;;
46491;SDS011;32206;51.446;6.792;2023-05-10T12:31:56;5.63;;;4.60;;
46491;SDS011;32206;51.446;6.792;2023-05-10T12:34:26;8.20;;;5.40;;
46491;SDS011;32206;51.446;6.792;2023-05-10T12:36:56;8.63;;;6.35;;
46491;SDS011;32206;51.446;6.792;2023-05-10T12:39:21;7.93;;;5.22;;
46491;SDS011;32206;51.446;6.792;2023-05-10T12:41:47;6.95;;;5.35;;
46491;SDS011;32206;51.446;6.792;2023-05-10T12:44:13;6.75;;;5.90;;
46491;SDS011;32206;51.446;6.792;2023-05-10T12:46:39;8.43;;;6.10;;
46491;SDS011;32206;51.446;6.792;2023-05-10T12:49:05;8.52;;;4.97;;
46491;SDS011;32206;51.446;6.792;2023-05-10T12:51:30;6.03;;;5.35;;
46491;SDS011;32206;51.446;6.792;2023-05-10T12:53:56;6.07;;;4.57;;
46491;SDS011;32206;51.446;6.792;2023-05-10T12:56:22;11.50;;;3.70;;
46491;SDS011;32206;51.446;6.792;2023-05-10T12:58:47;6.45;;;4.20;;
46491;SDS011;32206;51.446;6.792;2023-05-10T13:01:13;6.88;;;4.45;;
46491;SDS011;32206;51.446;6.792;2023-05-10T13:03:39;5.47;;;3.92;;
46491;SDS011;32206;51.446;6.792;2023-05-10T13:06:05;4.35;;;3.95;;
46491;SDS011;32206;51.446;6.792;2023-05-10T13:08:33;7.00;;;4.28;;
46491;SDS011;32206;51.446;6.792;2023-05-10T13:10:59;5.13;;;4.63;;
46491;SDS011;32206;51.446;6.792;2023-05-10T13:13:25;5.43;;;4.93;;
46491;SDS011;32206;51.446;6.792;2023-05-10T13:15:51;6.70;;;4.72;;
46491;SDS011;32206;51.446;6.792;2023-05-10T13:18:17;6.13;;;4.45;;
46491;SDS011;32206;51.446;6.792;2023-05-10T13:24:04;4.38;;;3.88;;
46491;SDS011;32206;51.446;6.792;2023-05-10T13:29:33;5.75;;;4.78;;
46491;SDS011;32206;51.446;6.792;2023-05-10T13:31:59;6.25;;;3.60;;
46491;SDS011;32206;51.446;6.792;2023-05-10T13:34:25;7.85;;;4.07;;
46491;SDS011;32206;51.446;6.792;2023-05-10T13:36:50;9.32;;;5.63;;
46491;SDS011;32206;51.446;6.792;2023-05-10T13:42:38;4.47;;;4.07;;
46491;SDS011;32206;51.446;6.792;2023-05-10T13:45:04;4.63;;;4.18;;
46491;SDS011;32206;51.446;6.792;2023-05-10T13:47:30;4.88;;;4.47;;
46491;SDS011;32206;51.446;6.792;2023-05-10T13:49:56;5.22;;;4.72;;
46491;SDS011;32206;51.446;6.792;2023-05-10T13:52:22;15.23;;;11.05;;
46491;SDS011;32206;51.446;6.792;2023-05-10T13:54:48;6.25;;;5.22;;
46491;SDS011;32206;51.446;6.792;2023-05-10T13:57:14;8.40;;;5.30;;
46491;SDS011;32206;51.446;6.792;2023-05-10T13:59:41;5.43;;;4.93;;
46491;SDS011;32206;51.446;6.792;2023-05-10T14:02:07;6.75;;;5.60;;
46491;SDS011;32206;51.446;6.792;2023-05-10T14:04:32;6.35;;;5.75;;
46491;SDS011;32206;51.446;6.792;2023-05-10T14:07:00;8.85;;;4.70;;
46491;SDS011;32206;51.446;6.792;2023-05-10T14:09:26;8.75;;;6.40;;
46491;SDS011;32206;51.446;6.792;2023-05-10T14:11:51;18.77;;;7.05;;
46491;SDS011;32206;51.446;6.792;2023-05-10T14:14:17;5.80;;;5.05;;
46491;SDS011;32206;51.446;6.792;2023-05-10T14:19:45;8.02;;;5.63;;
46491;SDS011;32206;51.446;6.792;2023-05-10T14:22:11;10.45;;;6.53;;
46491;SDS011;32206;51.446;6.792;2023-05-10T14:24:37;8.68;;;5.65;;
46491;SDS011;32206;51.446;6.792;2023-05-10T14:30:25;6.20;;;5.60;;
46491;SDS011;32206;51.446;6.792;2023-05-10T14:32:51;7.10;;;6.28;;
46491;SDS011;32206;51.446;6.792;2023-05-10T14:35:18;6.28;;;5.68;;
46491;SDS011;32206;51.446;6.792;2023-05-10T14:37:44;7.75;;;5.63;;
46491;SDS011;32206;51.446;6.792;2023-05-10T14:40:10;5.07;;;4.60;;
46491;SDS011;32206;51.446;6.792;2023-05-10T14:42:37;7.43;;;6.03;;
46491;SDS011;32206;51.446;6.792;2023-05-10T14:48:25;7.10;;;6.45;;
46491;SDS011;32206;51.446;6.792;2023-05-10T14:50:51;8.27;;;7.47;;
46491;SDS011;32206;51.446;6.792;2023-05-10T14:53:17;12.85;;;10.88;;
46491;SDS011;32206;51.446;6.792;2023-05-10T14:55:43;14.88;;;9.60;;
46491;SDS011;32206;51.446;6.792;2023-05-10T14:58:09;10.70;;;8.57;;
46491;SDS011;32206;51.446;6.792;2023-05-10T15:00:35;11.60;;;8.55;;
46491;SDS011;32206;51.446;6.792;2023-05-10T15:03:01;14.02;;;8.43;;
46491;SDS011;32206;51.446;6.792;2023-05-10T15:05:27;8.90;;;7.97;;
46491;SDS011;32206;51.446;6.792;2023-05-10T15:07:53;8.77;;;7.85;;
46491;SDS011;32206;51.446;6.792;2023-05-10T15:10:19;12.38;;;8.48;;
46491;SDS011;32206;51.446;6.792;2023-05-10T15:12:44;12.70;;;8.63;;
46491;SDS011;32206;51.446;6.792;2023-05-10T15:15:10;9.90;;;8.45;;
46491;SDS011;32206;51.446;6.792;2023-05-10T15:17:36;17.17;;;9.52;;
46491;SDS011;32206;51.446;6.792;2023-05-10T15:20:02;11.25;;;9.55;;
46491;SDS011;32206;51.446;6.792;2023-05-10T15:22:29;10.93;;;8.85;;
46491;SDS011;32206;51.446;6.792;2023-05-10T15:24:57;11.45;;;9.57;;
46491;SDS011;32206;51.446;6.792;2023-05-10T15:27:24;10.15;;;8.32;;
46491;SDS011;32206;51.446;6.792;2023-05-10T15:29:50;9.30;;;8.30;;
46491;SDS011;32206;51.446;6.792;2023-05-10T15:32:16;10.98;;;8.23;;
46491;SDS011;32206;51.446;6.792;2023-05-10T15:34:42;8.27;;;5.82;;
46491;SDS011;32206;51.446;6.792;2023-05-10T15:37:08;5.32;;;2.60;;
46491;SDS011;32206;51.446;6.792;2023-05-10T15:39:34;2.38;;;0.90;;
46491;SDS011;32206;51.446;6.792;2023-05-10T15:42:00;4.50;;;1.13;;
46491;SDS011;32206;51.446;6.792;2023-05-10T15:44:28;5.22;;;0.98;;
46491;SDS011;32206;51.446;6.792;2023-05-10T15:46:54;2.65;;;0.98;;
46491;SDS011;32206;51.446;6.792;2023-05-10T15:49:20;5.05;;;1.40;;
46491;SDS011;32206;51.446;6.792;2023-05-10T15:51:46;5.13;;;1.30;;
46491;SDS011;32206;51.446;6.792;2023-05-10T15:54:12;3.42;;;0.95;;
46491;SDS011;32206;51.446;6.792;2023-05-10T15:56:38;1.50;;;0.98;;
46491;SDS011;32206;51.446;6.792;2023-05-10T15:59:05;4.55;;;1.67;;
46491;SDS011;32206;51.446;6.792;2023-05-10T16:01:32;10.45;;;2.05;;
46491;SDS011;32206;51.446;6.792;2023-05-10T16:03:59;2.83;;;1.92;;
46491;SDS011;32206;51.446;6.792;2023-05-10T16:06:25;1.95;;;1.25;;
46491;SDS011;32206;51.446;6.792;2023-05-10T16:08:51;4.03;;;1.80;;
46491;SDS011;32206;51.446;6.792;2023-05-10T16:11:17;5.00;;;2.00;;
46491;SDS011;32206;51.446;6.792;2023-05-10T16:13:43;5.30;;;2.42;;
46491;SDS011;32206;51.446;6.792;2023-05-10T16:16:08;7.60;;;2.00;;
46491;SDS011;32206;51.446;6.792;2023-05-10T16:18:35;2.22;;;1.98;;
46491;SDS011;32206;51.446;6.792;2023-05-10T16:21:00;5.35;;;2.42;;
46491;SDS011;32206;51.446;6.792;2023-05-10T16:23:26;5.85;;;2.70;;
46491;SDS011;32206;51.446;6.792;2023-05-10T16:25:52;7.80;;;3.15;;
46491;SDS011;32206;51.446;6.792;2023-05-10T16:28:18;4.97;;;3.50;;
46491;SDS011;32206;51.446;6.792;2023-05-10T16:30:47;5.82;;;3.25;;
46491;SDS011;32206;51.446;6.792;2023-05-10T16:33:13;5.80;;;3.58;;